createdAt,value
2023-03-01T00:00:39.774Z,6.87
2023-03-01T00:03:12.242Z,6.73
2023-03-01T00:05:47.939Z,7.23
2023-03-01T00:08:17.701Z,7.97
2023-03-01T00:10:47.501Z,7.13
2023-03-01T00:13:17.294Z,7.70
2023-03-01T00:15:47.047Z,7.47
2023-03-01T00:18:19.444Z,7.80
2023-03-01T00:20:53.963Z,7.17
2023-03-01T00:23:23.791Z,7.73
2023-03-01T00:25:53.595Z,7.37
2023-03-01T00:28:23.855Z,7.03
2023-03-01T00:30:53.676Z,7.73
2023-03-01T00:33:26.261Z,7.27
2023-03-01T00:35:56.041Z,6.73
2023-03-01T00:38:25.792Z,6.67
2023-03-01T00:40:55.687Z,4.60
2023-03-01T00:43:25.579Z,4.70
2023-03-01T00:45:55.334Z,6.40
2023-03-01T00:48:27.792Z,4.90
2023-03-01T00:50:57.535Z,5.47
2023-03-01T00:53:29.769Z,5.30
2023-03-01T00:56:01.102Z,6.00
2023-03-01T00:58:31.042Z,5.83
2023-03-01T01:01:00.809Z,6.40
2023-03-01T01:03:33.174Z,6.73
2023-03-01T01:06:10.444Z,7.37
2023-03-01T01:08:41.051Z,7.63
2023-03-01T01:11:13.083Z,7.43
2023-03-01T01:13:43.265Z,6.50
2023-03-01T01:16:13.149Z,6.77
2023-03-01T01:18:45.875Z,7.87
2023-03-01T01:21:18.890Z,7.53
2023-03-01T01:23:49.742Z,6.50
2023-03-01T01:26:22.365Z,7.20
2023-03-01T01:28:52.293Z,7.03
2023-03-01T01:31:26.267Z,6.67
2023-03-01T01:33:59.643Z,5.97
2023-03-01T01:36:29.817Z,5.37
2023-03-01T01:45:41.808Z,5.03
2023-03-01T01:48:21.021Z,5.00
2023-03-01T01:50:59.367Z,4.73
2023-03-01T01:53:30.303Z,5.87
2023-03-01T01:56:04.302Z,5.50
2023-03-01T01:58:34.662Z,4.47
2023-03-01T02:01:04.836Z,4.57
2023-03-01T02:03:38.742Z,5.00
2023-03-01T02:06:19.325Z,4.47
2023-03-01T02:08:52.762Z,4.43
2023-03-01T02:11:23.148Z,3.50
2023-03-01T02:13:53.087Z,3.97
2023-03-01T02:16:23.444Z,5.40
2023-03-01T02:18:54.467Z,5.10
2023-03-01T02:21:40.313Z,4.37
2023-03-01T02:24:21.371Z,5.00
2023-03-01T02:26:56.350Z,3.97
2023-03-01T02:29:30.583Z,4.50
2023-03-01T02:32:04.169Z,4.73
2023-03-01T02:34:35.356Z,4.60
2023-03-01T02:37:07.857Z,6.87
2023-03-01T02:39:43.126Z,4.97
2023-03-01T02:42:16.368Z,4.90
2023-03-01T02:44:48.804Z,4.97
2023-03-01T02:47:18.545Z,6.97
2023-03-01T02:49:48.309Z,5.60
2023-03-01T02:52:34.402Z,6.77
2023-03-01T02:55:07.363Z,6.20
2023-03-01T02:57:44.208Z,6.33
2023-03-01T03:00:23.068Z,6.53
2023-03-01T03:02:54.737Z,5.83
2023-03-01T03:05:27.021Z,6.40
2023-03-01T03:07:58.002Z,6.63
2023-03-01T03:10:40.685Z,6.83
2023-03-01T03:13:12.903Z,6.87
2023-03-01T03:15:46.240Z,7.83
2023-03-01T03:18:21.619Z,7.33
2023-03-01T03:20:54.135Z,7.20
2023-03-01T03:23:24.858Z,7.33
2023-03-01T03:25:55.144Z,7.03
2023-03-01T03:28:25.012Z,8.40
2023-03-01T03:30:57.473Z,7.50
2023-03-01T03:33:27.302Z,7.57
2023-03-01T03:35:57.231Z,7.07
2023-03-01T03:38:27.336Z,7.37
2023-03-01T03:41:05.005Z,7.60
2023-03-01T03:43:36.711Z,6.77
2023-03-01T03:46:09.598Z,7.23
2023-03-01T03:48:41.477Z,7.10
2023-03-01T03:51:13.518Z,7.10
2023-03-01T03:53:44.161Z,7.10
2023-03-01T03:56:14.697Z,6.67
2023-03-01T03:58:44.589Z,6.20
2023-03-01T04:01:16.964Z,6.40
2023-03-01T04:03:47.638Z,5.87
2023-03-01T04:06:17.957Z,6.63
2023-03-01T04:08:47.704Z,6.17
2023-03-01T04:11:32.414Z,6.20
2023-03-01T04:14:02.701Z,6.07
2023-03-01T04:16:35.107Z,6.03
2023-03-01T04:19:04.891Z,6.30
2023-03-01T04:21:34.631Z,6.40
2023-03-01T04:24:04.883Z,6.00
2023-03-01T04:26:34.669Z,6.20
2023-03-01T04:29:04.442Z,5.77
2023-03-01T04:31:36.835Z,5.80
2023-03-01T04:34:06.601Z,6.33
2023-03-01T04:36:37.018Z,6.30
2023-03-01T04:39:13.420Z,6.60
2023-03-01T04:41:44.314Z,6.50
2023-03-01T04:44:14.109Z,7.50
2023-03-01T04:46:46.486Z,7.37
2023-03-01T04:49:17.137Z,6.57
2023-03-01T04:51:46.934Z,6.00
2023-03-01T04:54:19.929Z,6.97
2023-03-01T04:56:49.725Z,6.63
2023-03-01T04:59:25.079Z,6.80
2023-03-01T05:02:01.551Z,7.10
2023-03-01T05:04:31.398Z,6.43
2023-03-01T05:07:01.209Z,6.80
2023-03-01T05:09:31.075Z,7.03
2023-03-01T05:12:00.912Z,7.23
2023-03-01T05:14:30.718Z,7.27
2023-03-01T05:17:05.013Z,6.60
2023-03-01T05:19:34.831Z,6.53
2023-03-01T05:22:07.510Z,6.57
2023-03-01T05:24:39.725Z,6.13
2023-03-01T05:27:10.071Z,7.23
2023-03-01T05:29:40.709Z,7.00
2023-03-01T05:32:16.799Z,7.10
2023-03-01T05:34:47.472Z,6.13
2023-03-01T05:37:17.762Z,9.90
2023-03-01T05:39:48.927Z,7.70
2023-03-01T05:42:20.999Z,7.97
2023-03-01T05:44:50.807Z,6.67
2023-03-01T05:47:23.311Z,6.77
2023-03-01T05:49:53.489Z,6.13
2023-03-01T05:52:23.374Z,6.50
2023-03-01T05:54:53.266Z,6.30
2023-03-01T05:57:23.147Z,6.80
2023-03-01T05:59:53.031Z,6.37
2023-03-01T06:02:25.552Z,7.13
2023-03-01T06:04:55.549Z,5.93
2023-03-01T06:07:25.537Z,6.03
2023-03-01T06:09:55.416Z,6.17
2023-03-01T06:12:25.316Z,5.90
2023-03-01T06:14:55.132Z,5.80
2023-03-01T06:17:27.586Z,6.30
2023-03-01T06:19:57.335Z,6.20
2023-03-01T06:22:27.574Z,5.93
2023-03-01T06:24:57.326Z,7.00
2023-03-01T06:27:27.087Z,5.93
2023-03-01T06:29:56.881Z,6.60
2023-03-01T06:32:29.391Z,6.50
2023-03-01T06:34:59.690Z,5.57
2023-03-01T06:37:29.842Z,6.10
2023-03-01T06:39:59.621Z,6.03
2023-03-01T06:42:29.427Z,5.47
2023-03-01T06:44:59.162Z,5.43
2023-03-01T06:47:31.518Z,5.47
2023-03-01T06:50:01.340Z,6.03
2023-03-01T06:52:31.162Z,5.53
2023-03-01T06:55:00.970Z,5.37
2023-03-01T06:57:30.970Z,6.37
2023-03-01T07:00:00.734Z,6.10
2023-03-01T07:02:33.324Z,7.30
2023-03-01T07:05:03.102Z,6.07
2023-03-01T07:07:32.850Z,6.40
2023-03-01T07:10:03.410Z,7.07
2023-03-01T07:12:33.167Z,6.83
2023-03-01T07:15:02.967Z,5.80
2023-03-01T07:17:40.527Z,5.77
2023-03-01T07:20:11.393Z,6.20
2023-03-01T07:22:43.788Z,5.83
2023-03-01T07:25:14.088Z,6.30
2023-03-01T07:27:43.911Z,6.03
2023-03-01T07:30:14.869Z,6.23
2023-03-01T07:32:47.325Z,6.37
2023-03-01T07:35:20.686Z,6.50
2023-03-01T07:37:50.420Z,7.47
2023-03-01T07:40:20.415Z,8.63
2023-03-01T07:42:50.249Z,8.27
2023-03-01T07:45:20.120Z,7.70
2023-03-01T07:47:54.565Z,6.40
2023-03-01T07:50:25.189Z,6.53
2023-03-01T07:52:55.291Z,6.20
2023-03-01T07:55:25.188Z,6.83
2023-03-01T07:57:55.042Z,6.37
2023-03-01T08:00:25.365Z,6.63
2023-03-01T08:03:00.360Z,6.70
2023-03-01T08:05:30.568Z,6.10
2023-03-01T08:08:00.401Z,5.90
2023-03-01T08:10:30.271Z,6.47
2023-03-01T08:13:00.130Z,6.80
2023-03-01T08:15:30.396Z,7.03
2023-03-01T08:18:25.258Z,7.33
2023-03-01T08:21:14.176Z,7.70
2023-03-01T08:23:44.846Z,7.77
2023-03-01T08:26:16.696Z,8.60
2023-03-01T08:29:13.694Z,9.83
2023-03-01T08:31:46.630Z,9.47
2023-03-01T08:34:21.079Z,9.80
2023-03-01T08:36:52.866Z,8.27
2023-03-01T08:39:24.193Z,9.23
2023-03-01T08:41:54.061Z,8.70
2023-03-01T08:44:24.724Z,9.20
2023-03-01T08:46:56.789Z,8.83
2023-03-01T08:49:29.275Z,9.37
2023-03-01T08:51:59.141Z,9.30
2023-03-01T08:54:29.314Z,10.10
2023-03-01T08:57:00.278Z,10.90
2023-03-01T08:59:31.021Z,11.30
2023-03-01T09:02:00.985Z,11.73
2023-03-01T09:04:34.450Z,12.73
2023-03-01T09:07:04.272Z,12.07
2023-03-01T09:09:34.119Z,11.60
2023-03-01T09:12:10.820Z,12.80
2023-03-01T09:14:43.653Z,12.70
2023-03-01T09:17:13.627Z,12.83
2023-03-01T09:19:46.336Z,11.83
2023-03-01T09:22:16.168Z,11.13
2023-03-01T09:24:46.046Z,12.23
2023-03-01T09:27:15.872Z,11.80
2023-03-01T09:29:45.639Z,12.47
2023-03-01T09:32:15.852Z,13.57
2023-03-01T09:35:00.784Z,13.47
2023-03-01T09:37:31.087Z,15.37
2023-03-01T09:40:01.113Z,17.37
2023-03-01T09:42:34.715Z,17.47
2023-03-01T09:45:08.099Z,17.67
2023-03-01T09:47:41.620Z,17.17
2023-03-01T09:50:18.623Z,16.80
2023-03-01T09:52:52.566Z,16.40
2023-03-01T09:55:32.480Z,15.10
2023-03-01T09:58:10.629Z,13.43
2023-03-01T10:00:45.887Z,13.97
2023-03-01T10:03:21.922Z,13.03
2023-03-01T10:06:04.077Z,15.77
2023-03-01T10:08:40.081Z,15.83
2023-03-01T10:11:25.106Z,14.93
2023-03-01T10:14:00.874Z,13.33
2023-03-01T10:16:35.989Z,13.00
2023-03-01T10:19:08.846Z,13.37
2023-03-01T10:21:48.851Z,11.60
2023-03-01T10:24:22.801Z,12.77
2023-03-01T10:27:00.339Z,12.83
2023-03-01T10:29:35.633Z,12.63
2023-03-01T10:32:08.781Z,12.03
2023-03-01T10:34:40.404Z,11.60
2023-03-01T10:37:19.466Z,12.73
2023-03-01T10:40:00.194Z,11.67
2023-03-01T10:42:33.400Z,13.20
2023-03-01T10:45:20.545Z,12.77
2023-03-01T10:47:50.382Z,12.97
2023-03-01T10:50:24.864Z,13.50
2023-03-01T10:53:07.764Z,13.73
2023-03-01T10:55:40.808Z,13.60
2023-03-01T10:58:20.263Z,12.77
2023-03-01T11:00:52.475Z,12.20
2023-03-01T11:03:26.000Z,12.00
2023-03-01T11:05:59.455Z,11.63
2023-03-01T11:08:50.593Z,12.07
2023-03-01T11:11:28.863Z,10.83
2023-03-01T11:14:01.757Z,11.63
2023-03-01T11:16:36.124Z,11.07
2023-03-01T11:19:19.470Z,16.10
2023-03-01T11:22:03.836Z,11.23
2023-03-01T11:24:43.463Z,11.97
2023-03-01T11:27:21.108Z,12.53
2023-03-01T11:29:56.443Z,10.27
2023-03-01T11:32:30.954Z,10.13
2023-03-01T11:35:05.716Z,11.43
2023-03-01T11:37:42.062Z,10.27
2023-03-01T11:40:33.932Z,9.50
2023-03-01T11:43:18.998Z,9.67
2023-03-01T11:52:15.399Z,7.17
2023-03-01T11:55:49.427Z,9.20
2023-03-01T11:58:33.883Z,8.43
2023-03-01T12:01:15.123Z,8.97
2023-03-01T12:04:17.833Z,10.23
2023-03-01T12:07:00.408Z,9.97
2023-03-01T12:09:53.478Z,10.13
2023-03-01T12:12:38.899Z,9.53
2023-03-01T12:15:37.406Z,9.70
2023-03-01T12:18:20.134Z,8.70
2023-03-01T12:21:01.152Z,8.73
2023-03-01T12:24:18.184Z,8.40
2023-03-01T12:26:59.399Z,9.03
2023-03-01T12:29:35.453Z,8.90
2023-03-01T12:32:38.868Z,9.53
2023-03-01T12:35:33.235Z,8.73
2023-03-01T12:38:15.049Z,9.40
2023-03-01T12:41:05.560Z,8.73
2023-03-01T12:43:48.306Z,9.37
2023-03-01T12:46:30.438Z,9.73
2023-03-01T12:49:11.885Z,8.97
2023-03-01T12:51:43.915Z,9.27
2023-03-01T12:54:19.952Z,8.30
2023-03-01T12:56:53.592Z,8.80
2023-03-01T12:59:29.762Z,8.83
2023-03-01T13:02:08.698Z,9.30
2023-03-01T13:04:52.334Z,9.50
2023-03-01T13:07:32.357Z,9.07
2023-03-01T13:10:15.816Z,8.73
2023-03-01T13:13:04.130Z,8.20
2023-03-01T13:15:40.995Z,8.37
2023-03-01T13:21:02.697Z,8.33
2023-03-01T13:23:52.479Z,8.33
2023-03-01T13:26:26.420Z,8.47
2023-03-01T13:29:01.860Z,8.27
2023-03-01T13:32:05.785Z,8.00
2023-03-01T13:34:50.855Z,8.70
2023-03-01T13:37:30.630Z,9.10
2023-03-01T13:40:09.081Z,9.00
2023-03-01T13:42:56.269Z,9.30
2023-03-01T13:45:41.024Z,8.50
2023-03-01T13:48:17.635Z,8.63
2023-03-01T13:50:54.751Z,8.63
2023-03-01T13:53:30.175Z,9.30
2023-03-01T13:56:04.591Z,9.63
2023-03-01T13:58:39.548Z,9.20
2023-03-01T14:01:10.823Z,9.03
2023-03-01T14:03:45.769Z,9.90
2023-03-01T14:06:21.003Z,9.23
2023-03-01T14:08:56.775Z,9.17
2023-03-01T14:12:02.381Z,9.77
2023-03-01T14:14:51.642Z,9.90
2023-03-01T14:17:38.724Z,9.53
2023-03-01T14:20:16.275Z,9.20
2023-03-01T14:22:47.420Z,10.03
2023-03-01T14:25:27.613Z,9.30
2023-03-01T14:28:05.744Z,9.37
2023-03-01T14:30:41.393Z,9.87
2023-03-01T14:33:23.783Z,9.03
2023-03-01T14:36:00.007Z,9.90
2023-03-01T14:38:37.590Z,9.83
2023-03-01T14:41:13.797Z,10.77
2023-03-01T14:43:48.808Z,9.80
2023-03-01T14:46:24.262Z,10.20
2023-03-01T14:48:56.596Z,11.10
2023-03-01T14:51:26.850Z,14.67
2023-03-01T14:54:00.512Z,15.60
2023-03-01T14:56:48.496Z,16.50
2023-03-01T14:59:18.276Z,15.43
2023-03-01T15:01:48.760Z,15.10
2023-03-01T15:04:18.803Z,16.30
2023-03-01T15:06:49.492Z,15.57
2023-03-01T15:09:21.240Z,16.30
2023-03-01T15:12:23.872Z,15.57
2023-03-01T15:15:03.826Z,15.40
2023-03-01T15:17:37.043Z,15.37
2023-03-01T15:20:11.356Z,15.93
2023-03-01T15:22:41.222Z,15.30
2023-03-01T15:25:19.347Z,14.97
2023-03-01T15:27:50.313Z,15.90
2023-03-01T15:30:28.418Z,14.73
2023-03-01T15:33:23.962Z,14.87
2023-03-01T15:35:55.560Z,14.47
2023-03-01T15:38:34.643Z,14.43
2023-03-01T15:41:06.510Z,14.33
2023-03-01T15:43:50.894Z,14.47
2023-03-01T15:46:29.016Z,14.60
2023-03-01T15:49:01.363Z,15.43
2023-03-01T15:51:34.192Z,14.93
2023-03-01T15:54:08.124Z,14.30
2023-03-01T15:56:38.058Z,13.50
2023-03-01T15:59:08.377Z,15.33
2023-03-01T16:01:40.846Z,13.83
2023-03-01T16:04:10.997Z,15.17
2023-03-01T16:06:41.021Z,15.67
2023-03-01T16:09:11.590Z,15.87
2023-03-01T16:11:43.520Z,14.70
2023-03-01T16:14:13.644Z,15.23
2023-03-01T16:16:46.312Z,14.77
2023-03-01T16:19:19.948Z,14.27
2023-03-01T16:21:52.900Z,14.47
2023-03-01T16:24:22.660Z,15.13
2023-03-01T16:26:52.621Z,14.33
2023-03-01T16:29:22.488Z,14.73
2023-03-01T16:31:54.982Z,14.37
2023-03-01T16:34:25.129Z,14.07
2023-03-01T16:36:54.882Z,13.67
2023-03-01T16:39:24.715Z,14.47
2023-03-01T16:41:54.521Z,13.80
2023-03-01T16:44:24.513Z,12.80
2023-03-01T16:46:57.195Z,13.40
2023-03-01T16:49:26.954Z,12.87
2023-03-01T16:51:57.641Z,13.03
2023-03-01T16:54:27.435Z,12.83
2023-03-01T16:56:57.242Z,13.27
2023-03-01T16:59:29.407Z,12.80
2023-03-01T17:02:01.835Z,14.13
2023-03-01T17:04:31.644Z,12.40
2023-03-01T17:07:01.598Z,12.43
2023-03-01T17:09:31.597Z,12.40
2023-03-01T17:12:01.683Z,12.63
2023-03-01T17:14:31.506Z,14.20
2023-03-01T17:17:04.180Z,12.97
2023-03-01T17:19:34.818Z,11.97
2023-03-01T17:22:04.841Z,12.37
2023-03-01T17:24:36.438Z,12.67
2023-03-01T17:27:06.652Z,11.23
2023-03-01T17:29:37.005Z,10.53
2023-03-01T17:32:10.117Z,10.80
2023-03-01T17:34:40.710Z,10.27
2023-03-01T17:37:10.765Z,9.47
2023-03-01T17:39:40.567Z,10.13
2023-03-01T17:42:10.453Z,9.90
2023-03-01T17:44:41.386Z,13.17
2023-03-01T17:47:15.416Z,10.00
2023-03-01T17:49:45.269Z,10.37
2023-03-01T17:52:15.035Z,10.17
2023-03-01T17:54:44.898Z,9.77
2023-03-01T17:57:15.397Z,9.53
2023-03-01T17:59:45.244Z,10.10
2023-03-01T18:02:19.359Z,11.13
2023-03-01T18:04:49.396Z,10.20
2023-03-01T18:07:19.163Z,9.70
2023-03-01T18:09:48.987Z,10.17
2023-03-01T18:12:18.767Z,9.93
2023-03-01T18:14:53.757Z,8.80
2023-03-01T18:17:27.558Z,9.60
2023-03-01T18:19:57.417Z,9.03
2023-03-01T18:22:27.223Z,8.60
2023-03-01T18:24:57.111Z,9.13
2023-03-01T18:27:27.417Z,9.27
2023-03-01T18:29:57.280Z,8.47
2023-03-01T18:32:29.851Z,9.83
2023-03-01T18:34:59.880Z,7.67
2023-03-01T18:37:29.682Z,8.63
2023-03-01T18:39:59.599Z,8.80
2023-03-01T18:42:29.367Z,8.77
2023-03-01T18:44:59.394Z,8.83
2023-03-01T18:47:31.777Z,8.63
2023-03-01T18:50:01.633Z,8.33
2023-03-01T18:52:31.437Z,8.67
2023-03-01T18:55:01.275Z,9.43
2023-03-01T18:57:31.626Z,9.90
2023-03-01T19:00:01.415Z,10.60
2023-03-01T19:02:33.977Z,11.70
2023-03-01T19:05:04.067Z,11.33
2023-03-01T19:07:34.424Z,11.90
2023-03-01T19:10:04.549Z,11.70
2023-03-01T19:12:35.252Z,11.77
2023-03-01T19:15:05.263Z,11.80
2023-03-01T19:17:38.143Z,11.53
2023-03-01T19:20:09.911Z,10.73
2023-03-01T19:22:40.600Z,10.37
2023-03-01T19:25:11.703Z,12.17
2023-03-01T19:27:41.555Z,10.63
2023-03-01T19:30:31.246Z,10.80
2023-03-01T19:33:03.650Z,10.83
2023-03-01T19:35:33.675Z,11.00
2023-03-01T19:38:03.563Z,10.77
2023-03-01T19:40:33.325Z,9.67
2023-03-01T19:43:03.078Z,9.93
2023-03-01T19:45:34.679Z,9.33
2023-03-01T19:48:08.130Z,9.67
2023-03-01T19:50:38.530Z,10.27
2023-03-01T19:53:08.284Z,10.83
2023-03-01T19:55:40.058Z,11.67
2023-03-01T19:58:10.735Z,11.70
2023-03-01T20:00:41.243Z,12.30
2023-03-01T20:03:13.748Z,11.97
2023-03-01T20:05:43.911Z,13.50
2023-03-01T20:08:13.739Z,13.17
2023-03-01T20:10:43.526Z,13.27
2023-03-01T20:13:13.411Z,13.73
2023-03-01T20:15:45.668Z,13.10
2023-03-01T20:18:18.175Z,13.40
2023-03-01T20:20:52.163Z,14.63
2023-03-01T20:23:22.289Z,14.13
2023-03-01T20:25:52.135Z,13.60
2023-03-01T20:28:22.870Z,13.67
2023-03-01T20:30:52.984Z,13.37
2023-03-01T20:33:26.217Z,13.47
2023-03-01T20:35:56.265Z,14.27
2023-03-01T20:38:26.414Z,14.90
2023-03-01T20:41:01.023Z,14.50
2023-03-01T20:43:31.132Z,14.07
2023-03-01T20:46:01.085Z,15.27
2023-03-01T20:48:33.644Z,15.10
2023-03-01T20:51:07.391Z,17.13
2023-03-01T20:53:37.156Z,15.33
2023-03-01T20:56:07.835Z,15.93
2023-03-01T20:58:38.071Z,15.63
2023-03-01T21:01:09.410Z,16.50
2023-03-01T21:03:41.824Z,17.27
2023-03-01T21:06:11.696Z,18.30
2023-03-01T21:08:41.580Z,17.23
2023-03-01T21:11:11.508Z,17.57
2023-03-01T21:13:41.890Z,16.43
2023-03-01T21:16:14.776Z,16.13
2023-03-01T21:18:47.167Z,14.53
2023-03-01T21:21:18.896Z,14.37
2023-03-01T21:23:49.370Z,13.77
2023-03-01T21:26:20.734Z,14.60
2023-03-01T21:28:51.546Z,11.93
2023-03-01T21:31:22.892Z,12.30
2023-03-01T21:33:57.054Z,11.83
2023-03-01T21:36:28.091Z,14.03
2023-03-01T21:38:58.287Z,13.33
2023-03-01T21:41:36.982Z,15.67
2023-03-01T21:44:09.413Z,14.13
2023-03-01T21:46:41.288Z,14.10
2023-03-01T21:49:26.153Z,13.63
2023-03-01T21:52:01.293Z,12.43
2023-03-01T21:54:32.009Z,13.03
2023-03-01T21:57:02.420Z,12.67
2023-03-01T21:59:32.236Z,13.23
2023-03-01T22:02:02.031Z,13.50
2023-03-01T22:04:34.441Z,13.57
2023-03-01T22:07:04.227Z,12.53
2023-03-01T22:09:36.331Z,12.87
2023-03-01T22:12:06.739Z,13.53
2023-03-01T22:14:36.538Z,13.23
2023-03-01T22:32:58.116Z,12.93
2023-03-01T22:45:52.732Z,14.03
2023-03-01T22:48:22.617Z,12.97
2023-03-01T22:50:55.951Z,12.70
2023-03-01T22:53:26.013Z,9.90
2023-03-01T22:55:55.841Z,9.20
2023-03-01T22:58:28.252Z,8.27
2023-03-01T23:00:59.573Z,8.47
2023-03-01T23:03:29.478Z,7.77
2023-03-01T23:05:59.266Z,7.50
2023-03-01T23:08:29.017Z,7.93
2023-03-01T23:10:59.266Z,7.83
2023-03-01T23:13:33.282Z,7.03
2023-03-01T23:16:03.118Z,8.23
2023-03-01T23:18:32.925Z,7.60
2023-03-01T23:21:03.515Z,7.50
2023-03-01T23:23:36.456Z,6.97
2023-03-01T23:26:06.430Z,6.93
2023-03-01T23:28:40.767Z,6.97
2023-03-01T23:31:13.867Z,8.33
2023-03-01T23:33:45.350Z,7.07
2023-03-01T23:36:20.107Z,7.53
2023-03-01T23:38:51.077Z,7.60
2023-03-01T23:41:22.799Z,6.50
2023-03-01T23:43:56.723Z,6.20
2023-03-01T23:46:29.147Z,6.10
2023-03-01T23:48:59.900Z,5.83
2023-03-01T23:51:29.975Z,5.40
2023-03-01T23:54:06.209Z,4.87
2023-03-01T23:56:38.582Z,5.77
2023-03-01T23:59:14.525Z,5.83
